sensor_id;sensor_type;location;lat;lon;timestamp;temperature;humidity
53286;DHT22;39171;45.550;12.074;2022-10-16T00:01:41;19.60;74.50
53286;DHT22;39171;45.550;12.074;2022-10-16T00:07:42;19.60;74.40
53286;DHT22;39171;45.550;12.074;2022-10-16T00:13:45;19.50;74.50
53286;DHT22;39171;45.550;12.074;2022-10-16T00:19:47;19.50;74.40
53286;DHT22;39171;45.550;12.074;2022-10-16T00:25:59;19.50;74.50
53286;DHT22;39171;45.550;12.074;2022-10-16T00:32:01;19.60;74.60
53286;DHT22;39171;45.550;12.074;2022-10-16T00:38:03;19.60;74.60
53286;DHT22;39171;45.550;12.074;2022-10-16T00:50:43;19.60;74.50
53286;DHT22;39171;45.550;12.074;2022-10-16T00:56:46;19.60;74.70
53286;DHT22;39171;45.550;12.074;2022-10-16T01:02:55;19.60;74.70
53286;DHT22;39171;45.550;12.074;2022-10-16T01:09:23;19.60;74.70
53286;DHT22;39171;45.550;12.074;2022-10-16T01:15:34;19.60;74.80
53286;DHT22;39171;45.550;12.074;2022-10-16T01:21:41;19.60;74.80
53286;DHT22;39171;45.550;12.074;2022-10-16T01:27:45;19.60;74.90
53286;DHT22;39171;45.550;12.074;2022-10-16T01:33:59;19.60;75.00
53286;DHT22;39171;45.550;12.074;2022-10-16T01:40:07;19.60;75.00
53286;DHT22;39171;45.550;12.074;2022-10-16T01:46:10;19.60;75.10
53286;DHT22;39171;45.550;12.074;2022-10-16T01:52:17;19.60;75.10
53286;DHT22;39171;45.550;12.074;2022-10-16T01:58:22;19.60;75.20
53286;DHT22;39171;45.550;12.074;2022-10-16T02:04:29;19.50;75.20
53286;DHT22;39171;45.550;12.074;2022-10-16T02:10:34;19.60;75.20
53286;DHT22;39171;45.550;12.074;2022-10-16T02:16:42;19.50;75.30
53286;DHT22;39171;45.550;12.074;2022-10-16T02:22:48;19.60;75.40
53286;DHT22;39171;45.550;12.074;2022-10-16T02:28:55;19.60;75.40
53286;DHT22;39171;45.550;12.074;2022-10-16T02:35:00;19.60;75.50
53286;DHT22;39171;45.550;12.074;2022-10-16T02:41:04;19.60;75.70
53286;DHT22;39171;45.550;12.074;2022-10-16T02:47:06;19.60;75.70
53286;DHT22;39171;45.550;12.074;2022-10-16T02:53:07;19.60;75.70
53286;DHT22;39171;45.550;12.074;2022-10-16T02:59:08;19.50;75.70
53286;DHT22;39171;45.550;12.074;2022-10-16T03:05:10;19.60;75.70
53286;DHT22;39171;45.550;12.074;2022-10-16T03:11:12;19.50;75.80
53286;DHT22;39171;45.550;12.074;2022-10-16T03:17:13;19.50;75.80
53286;DHT22;39171;45.550;12.074;2022-10-16T03:23:17;19.60;75.90
53286;DHT22;39171;45.550;12.074;2022-10-16T03:29:20;19.60;75.90
53286;DHT22;39171;45.550;12.074;2022-10-16T03:35:24;19.60;76.00
53286;DHT22;39171;45.550;12.074;2022-10-16T03:41:26;19.60;76.00
53286;DHT22;39171;45.550;12.074;2022-10-16T03:47:27;19.60;76.20
53286;DHT22;39171;45.550;12.074;2022-10-16T03:53:30;19.60;76.10
53286;DHT22;39171;45.550;12.074;2022-10-16T03:59:32;19.60;76.10
53286;DHT22;39171;45.550;12.074;2022-10-16T04:05:33;19.60;76.30
53286;DHT22;39171;45.550;12.074;2022-10-16T04:11:34;19.60;76.40
53286;DHT22;39171;45.550;12.074;2022-10-16T04:17:36;19.50;76.40
53286;DHT22;39171;45.550;12.074;2022-10-16T04:23:37;19.50;76.40
53286;DHT22;39171;45.550;12.074;2022-10-16T04:29:38;19.50;76.70
53286;DHT22;39171;45.550;12.074;2022-10-16T04:35:40;19.50;76.70
53286;DHT22;39171;45.550;12.074;2022-10-16T04:41:41;19.50;76.80
53286;DHT22;39171;45.550;12.074;2022-10-16T04:47:43;19.50;76.90
53286;DHT22;39171;45.550;12.074;2022-10-16T04:53:44;19.50;77.10
53286;DHT22;39171;45.550;12.074;2022-10-16T04:59:45;19.50;77.10
53286;DHT22;39171;45.550;12.074;2022-10-16T05:05:47;19.50;77.20
53286;DHT22;39171;45.550;12.074;2022-10-16T05:11:48;19.50;77.20
53286;DHT22;39171;45.550;12.074;2022-10-16T05:17:53;19.50;77.30
53286;DHT22;39171;45.550;12.074;2022-10-16T05:23:54;19.50;77.50
53286;DHT22;39171;45.550;12.074;2022-10-16T05:29:56;19.50;77.50
53286;DHT22;39171;45.550;12.074;2022-10-16T05:36:04;19.50;77.80
53286;DHT22;39171;45.550;12.074;2022-10-16T05:42:07;19.40;77.70
53286;DHT22;39171;45.550;12.074;2022-10-16T05:48:08;19.40;77.80
53286;DHT22;39171;45.550;12.074;2022-10-16T05:54:10;19.40;77.90
53286;DHT22;39171;45.550;12.074;2022-10-16T06:00:11;19.40;77.90
53286;DHT22;39171;45.550;12.074;2022-10-16T06:06:19;19.40;77.90
53286;DHT22;39171;45.550;12.074;2022-10-16T06:12:21;19.40;77.90
53286;DHT22;39171;45.550;12.074;2022-10-16T06:18:22;19.40;78.00
53286;DHT22;39171;45.550;12.074;2022-10-16T06:24:25;19.40;78.00
53286;DHT22;39171;45.550;12.074;2022-10-16T06:30:26;19.40;78.10
53286;DHT22;39171;45.550;12.074;2022-10-16T06:36:28;19.40;78.10
53286;DHT22;39171;45.550;12.074;2022-10-16T06:42:33;19.40;78.10
53286;DHT22;39171;45.550;12.074;2022-10-16T06:48:39;19.40;78.20
53286;DHT22;39171;45.550;12.074;2022-10-16T06:54:40;19.40;78.20
53286;DHT22;39171;45.550;12.074;2022-10-16T07:00:41;19.40;78.10
53286;DHT22;39171;45.550;12.074;2022-10-16T07:06:43;19.40;78.30
53286;DHT22;39171;45.550;12.074;2022-10-16T07:12:44;19.30;78.30
53286;DHT22;39171;45.550;12.074;2022-10-16T07:18:46;19.40;78.20
53286;DHT22;39171;45.550;12.074;2022-10-16T07:24:49;19.40;78.30
53286;DHT22;39171;45.550;12.074;2022-10-16T07:31:09;19.40;78.30
53286;DHT22;39171;45.550;12.074;2022-10-16T07:37:12;19.40;78.30
53286;DHT22;39171;45.550;12.074;2022-10-16T07:43:14;19.40;78.30
53286;DHT22;39171;45.550;12.074;2022-10-16T07:49:15;19.40;78.20
53286;DHT22;39171;45.550;12.074;2022-10-16T07:55:16;19.40;77.90
53286;DHT22;39171;45.550;12.074;2022-10-16T08:01:18;19.40;78.00
53286;DHT22;39171;45.550;12.074;2022-10-16T08:07:20;19.40;78.00
53286;DHT22;39171;45.550;12.074;2022-10-16T08:13:21;19.40;77.90
53286;DHT22;39171;45.550;12.074;2022-10-16T08:19:23;19.40;77.90
53286;DHT22;39171;45.550;12.074;2022-10-16T08:25:25;19.40;77.60
53286;DHT22;39171;45.550;12.074;2022-10-16T08:31:27;19.40;77.70
53286;DHT22;39171;45.550;12.074;2022-10-16T08:37:32;19.50;77.40
53286;DHT22;39171;45.550;12.074;2022-10-16T08:49:45;19.50;77.10
53286;DHT22;39171;45.550;12.074;2022-10-16T08:55:52;19.50;77.20
53286;DHT22;39171;45.550;12.074;2022-10-16T09:01:56;19.50;77.00
53286;DHT22;39171;45.550;12.074;2022-10-16T09:14:49;19.50;76.70
53286;DHT22;39171;45.550;12.074;2022-10-16T09:21:05;19.50;76.60
53286;DHT22;39171;45.550;12.074;2022-10-16T09:27:14;19.50;76.50
53286;DHT22;39171;45.550;12.074;2022-10-16T09:33:17;19.50;76.30
53286;DHT22;39171;45.550;12.074;2022-10-16T09:39:20;19.60;76.30
53286;DHT22;39171;45.550;12.074;2022-10-16T09:45:23;19.50;76.20
53286;DHT22;39171;45.550;12.074;2022-10-16T09:57:28;19.60;76.00
53286;DHT22;39171;45.550;12.074;2022-10-16T10:03:42;19.60;76.00
53286;DHT22;39171;45.550;12.074;2022-10-16T10:09:45;19.60;76.00
53286;DHT22;39171;45.550;12.074;2022-10-16T10:15:47;19.70;75.90
53286;DHT22;39171;45.550;12.074;2022-10-16T10:21:52;19.60;75.80
53286;DHT22;39171;45.550;12.074;2022-10-16T10:28:21;19.70;75.80
53286;DHT22;39171;45.550;12.074;2022-10-16T10:41:22;19.70;75.70
53286;DHT22;39171;45.550;12.074;2022-10-16T11:06:42;19.80;75.70
53286;DHT22;39171;45.550;12.074;2022-10-16T11:12:51;19.80;75.70
53286;DHT22;39171;45.550;12.074;2022-10-16T11:25:25;19.80;75.70
53286;DHT22;39171;45.550;12.074;2022-10-16T11:31:58;19.80;75.70
53286;DHT22;39171;45.550;12.074;2022-10-16T11:38:02;19.80;75.70
53286;DHT22;39171;45.550;12.074;2022-10-16T11:44:24;19.90;75.70
53286;DHT22;39171;45.550;12.074;2022-10-16T11:50:37;19.90;75.80
53286;DHT22;39171;45.550;12.074;2022-10-16T11:56:41;19.90;75.80
53286;DHT22;39171;45.550;12.074;2022-10-16T12:09:01;19.90;75.80
53286;DHT22;39171;45.550;12.074;2022-10-16T12:21:30;20.00;75.60
53286;DHT22;39171;45.550;12.074;2022-10-16T12:27:32;20.00;75.60
53286;DHT22;39171;45.550;12.074;2022-10-16T12:39:56;20.10;75.50
53286;DHT22;39171;45.550;12.074;2022-10-16T12:46:02;20.20;75.50
53286;DHT22;39171;45.550;12.074;2022-10-16T12:52:04;20.20;75.50
53286;DHT22;39171;45.550;12.074;2022-10-16T12:58:33;20.20;75.50
53286;DHT22;39171;45.550;12.074;2022-10-16T13:29:53;20.20;75.30
53286;DHT22;39171;45.550;12.074;2022-10-16T13:36:00;20.20;75.30
53286;DHT22;39171;45.550;12.074;2022-10-16T13:42:14;20.20;75.30
53286;DHT22;39171;45.550;12.074;2022-10-16T13:48:16;20.20;75.30
53286;DHT22;39171;45.550;12.074;2022-10-16T13:54:17;20.10;75.30
53286;DHT22;39171;45.550;12.074;2022-10-16T14:00:23;20.20;75.20
53286;DHT22;39171;45.550;12.074;2022-10-16T14:06:24;20.20;75.30
53286;DHT22;39171;45.550;12.074;2022-10-16T14:12:26;20.20;75.40
53286;DHT22;39171;45.550;12.074;2022-10-16T14:18:27;20.20;75.40
53286;DHT22;39171;45.550;12.074;2022-10-16T14:30:35;20.20;75.60
53286;DHT22;39171;45.550;12.074;2022-10-16T14:36:40;20.20;75.70
53286;DHT22;39171;45.550;12.074;2022-10-16T14:42:43;20.20;75.70
53286;DHT22;39171;45.550;12.074;2022-10-16T14:48:50;20.20;75.80
53286;DHT22;39171;45.550;12.074;2022-10-16T14:54:52;20.20;75.80
53286;DHT22;39171;45.550;12.074;2022-10-16T15:00:57;20.20;75.90
53286;DHT22;39171;45.550;12.074;2022-10-16T15:06:58;20.20;76.00
53286;DHT22;39171;45.550;12.074;2022-10-16T15:13:00;20.20;76.00
53286;DHT22;39171;45.550;12.074;2022-10-16T15:19:02;20.20;76.00
53286;DHT22;39171;45.550;12.074;2022-10-16T15:25:24;20.20;76.00
53286;DHT22;39171;45.550;12.074;2022-10-16T15:31:27;20.20;76.00
53286;DHT22;39171;45.550;12.074;2022-10-16T15:37:28;20.20;76.10
53286;DHT22;39171;45.550;12.074;2022-10-16T15:43:30;20.20;76.10
53286;DHT22;39171;45.550;12.074;2022-10-16T15:49:31;20.20;76.10
53286;DHT22;39171;45.550;12.074;2022-10-16T15:55:33;20.20;76.10
53286;DHT22;39171;45.550;12.074;2022-10-16T16:01:35;20.20;76.20
53286;DHT22;39171;45.550;12.074;2022-10-16T16:07:38;20.20;76.20
53286;DHT22;39171;45.550;12.074;2022-10-16T16:13:40;20.10;76.20
53286;DHT22;39171;45.550;12.074;2022-10-16T16:19:45;20.10;76.20
53286;DHT22;39171;45.550;12.074;2022-10-16T16:32:07;20.10;76.20
53286;DHT22;39171;45.550;12.074;2022-10-16T16:38:11;20.00;76.10
53286;DHT22;39171;45.550;12.074;2022-10-16T16:44:13;20.00;76.10
53286;DHT22;39171;45.550;12.074;2022-10-16T16:50:15;20.00;76.10
53286;DHT22;39171;45.550;12.074;2022-10-16T16:56:18;20.10;76.10
53286;DHT22;39171;45.550;12.074;2022-10-16T17:02:20;20.00;76.10
53286;DHT22;39171;45.550;12.074;2022-10-16T17:08:21;20.00;76.00
53286;DHT22;39171;45.550;12.074;2022-10-16T17:14:23;20.00;76.00
53286;DHT22;39171;45.550;12.074;2022-10-16T17:20:25;20.00;76.00
53286;DHT22;39171;45.550;12.074;2022-10-16T17:26:27;20.00;75.90
53286;DHT22;39171;45.550;12.074;2022-10-16T17:32:29;20.00;75.90
53286;DHT22;39171;45.550;12.074;2022-10-16T17:38:30;20.00;75.80
53286;DHT22;39171;45.550;12.074;2022-10-16T17:44:32;20.00;75.80
53286;DHT22;39171;45.550;12.074;2022-10-16T17:50:34;20.00;75.80
53286;DHT22;39171;45.550;12.074;2022-10-16T17:56:45;20.00;75.70
53286;DHT22;39171;45.550;12.074;2022-10-16T18:02:48;20.00;75.70
53286;DHT22;39171;45.550;12.074;2022-10-16T18:08:51;20.00;75.70
53286;DHT22;39171;45.550;12.074;2022-10-16T18:14:53;20.00;75.60
53286;DHT22;39171;45.550;12.074;2022-10-16T18:20:59;20.00;75.60
53286;DHT22;39171;45.550;12.074;2022-10-16T18:27:01;20.00;75.60
53286;DHT22;39171;45.550;12.074;2022-10-16T18:33:03;20.00;75.50
53286;DHT22;39171;45.550;12.074;2022-10-16T18:39:06;20.00;75.50
53286;DHT22;39171;45.550;12.074;2022-10-16T18:45:09;20.00;75.50
53286;DHT22;39171;45.550;12.074;2022-10-16T18:57:21;20.00;75.50
53286;DHT22;39171;45.550;12.074;2022-10-16T19:03:26;20.00;75.50
53286;DHT22;39171;45.550;12.074;2022-10-16T19:09:27;20.00;75.60
53286;DHT22;39171;45.550;12.074;2022-10-16T19:15:29;20.00;75.70
53286;DHT22;39171;45.550;12.074;2022-10-16T19:21:34;20.00;75.70
53286;DHT22;39171;45.550;12.074;2022-10-16T19:27:36;20.00;75.80
53286;DHT22;39171;45.550;12.074;2022-10-16T19:33:38;20.00;75.90
53286;DHT22;39171;45.550;12.074;2022-10-16T19:39:40;20.00;76.00
53286;DHT22;39171;45.550;12.074;2022-10-16T19:45:41;20.00;76.00
53286;DHT22;39171;45.550;12.074;2022-10-16T19:51:48;20.00;76.20
53286;DHT22;39171;45.550;12.074;2022-10-16T19:57:51;20.00;76.30
53286;DHT22;39171;45.550;12.074;2022-10-16T20:03:53;20.00;76.40
53286;DHT22;39171;45.550;12.074;2022-10-16T20:09:54;19.90;76.50
53286;DHT22;39171;45.550;12.074;2022-10-16T20:15:56;19.90;76.60
53286;DHT22;39171;45.550;12.074;2022-10-16T20:21:57;19.90;76.60
53286;DHT22;39171;45.550;12.074;2022-10-16T20:27:59;19.90;76.80
53286;DHT22;39171;45.550;12.074;2022-10-16T20:34:06;19.90;76.80
53286;DHT22;39171;45.550;12.074;2022-10-16T20:40:08;19.90;76.80
53286;DHT22;39171;45.550;12.074;2022-10-16T20:46:11;19.90;77.00
53286;DHT22;39171;45.550;12.074;2022-10-16T20:52:13;19.90;77.10
53286;DHT22;39171;45.550;12.074;2022-10-16T20:58:15;19.90;77.20
53286;DHT22;39171;45.550;12.074;2022-10-16T21:04:17;19.90;77.30
53286;DHT22;39171;45.550;12.074;2022-10-16T21:10:20;19.80;77.30
53286;DHT22;39171;45.550;12.074;2022-10-16T21:16:22;19.90;77.40
53286;DHT22;39171;45.550;12.074;2022-10-16T21:22:28;19.80;77.40
53286;DHT22;39171;45.550;12.074;2022-10-16T21:28:31;19.90;77.50
53286;DHT22;39171;45.550;12.074;2022-10-16T21:34:34;19.80;77.60
53286;DHT22;39171;45.550;12.074;2022-10-16T21:40:35;19.80;77.60
53286;DHT22;39171;45.550;12.074;2022-10-16T21:46:39;19.80;77.70
53286;DHT22;39171;45.550;12.074;2022-10-16T21:52:40;19.80;77.80
53286;DHT22;39171;45.550;12.074;2022-10-16T21:58:43;19.80;77.80
53286;DHT22;39171;45.550;12.074;2022-10-16T22:04:44;19.80;77.90
53286;DHT22;39171;45.550;12.074;2022-10-16T22:10:46;19.80;78.00
53286;DHT22;39171;45.550;12.074;2022-10-16T22:16:51;19.80;78.00
53286;DHT22;39171;45.550;12.074;2022-10-16T22:22:53;19.80;78.10
53286;DHT22;39171;45.550;12.074;2022-10-16T22:28:55;19.80;78.10
53286;DHT22;39171;45.550;12.074;2022-10-16T22:34:57;19.80;78.20
53286;DHT22;39171;45.550;12.074;2022-10-16T22:47:03;19.80;78.30
53286;DHT22;39171;45.550;12.074;2022-10-16T22:53:05;19.80;78.40
53286;DHT22;39171;45.550;12.074;2022-10-16T22:59:08;19.80;78.50
53286;DHT22;39171;45.550;12.074;2022-10-16T23:05:10;19.70;78.60
53286;DHT22;39171;45.550;12.074;2022-10-16T23:11:12;19.70;78.60
53286;DHT22;39171;45.550;12.074;2022-10-16T23:17:13;19.80;78.60
53286;DHT22;39171;45.550;12.074;2022-10-16T23:23:15;19.70;78.70
53286;DHT22;39171;45.550;12.074;2022-10-16T23:29:16;19.70;78.60
53286;DHT22;39171;45.550;12.074;2022-10-16T23:35:18;19.80;78.70
53286;DHT22;39171;45.550;12.074;2022-10-16T23:41:19;19.70;78.70
53286;DHT22;39171;45.550;12.074;2022-10-16T23:47:21;19.70;78.70
53286;DHT22;39171;45.550;12.074;2022-10-16T23:53:23;19.70;78.60
53286;DHT22;39171;45.550;12.074;2022-10-16T23:59:24;19.70;78.60
